createdAt,value
2018-01-22T00:00:14.241Z,-1.33
2018-01-22T00:01:14.221Z,-1.28
2018-01-22T00:02:14.213Z,-1.35
2018-01-22T00:03:14.205Z,-1.31
2018-01-22T00:04:14.195Z,-1.38
2018-01-22T00:05:14.186Z,-1.42
2018-01-22T00:06:14.182Z,-1.43
2018-01-22T00:07:14.168Z,-1.36
2018-01-22T00:08:14.166Z,-1.20
2018-01-22T00:09:14.149Z,-1.05
2018-01-22T00:10:14.206Z,-1.00
2018-01-22T00:11:14.133Z,-0.91
2018-01-22T00:12:14.133Z,-0.86
2018-01-22T00:13:14.117Z,-0.80
2018-01-22T00:14:14.105Z,-0.80
2018-01-22T00:15:14.096Z,-0.57
2018-01-22T00:16:14.096Z,-0.59
2018-01-22T00:17:14.078Z,-0.60
2018-01-22T00:18:14.070Z,-0.50
2018-01-22T00:19:14.063Z,-0.39
2018-01-22T00:20:14.057Z,-0.45
2018-01-22T00:21:14.044Z,-0.44
2018-01-22T00:22:14.035Z,-0.39
2018-01-22T00:23:14.028Z,-0.29
2018-01-22T00:24:14.017Z,-0.29
2018-01-22T00:25:14.010Z,-0.29
2018-01-22T00:26:14.054Z,-0.26
2018-01-22T00:27:13.991Z,-0.29
2018-01-22T00:28:13.984Z,-0.27
2018-01-22T00:29:13.975Z,-0.31
2018-01-22T00:30:13.966Z,-0.27
2018-01-22T00:31:13.957Z,-0.23
2018-01-22T00:32:13.951Z,-0.19
2018-01-22T00:33:13.940Z,-0.24
2018-01-22T00:34:13.932Z,-0.19
2018-01-22T00:35:13.923Z,-0.27
2018-01-22T00:36:13.926Z,-0.27
2018-01-22T00:37:13.905Z,-0.23
2018-01-22T00:38:13.899Z,-0.27
2018-01-22T00:39:13.889Z,-0.30
2018-01-22T00:40:13.883Z,-0.26
2018-01-22T00:41:13.872Z,-0.23
2018-01-22T00:42:13.862Z,-0.22
2018-01-22T00:43:13.856Z,-0.24
2018-01-22T00:44:13.847Z,-0.29
2018-01-22T00:45:13.839Z,-0.24
2018-01-22T00:46:13.830Z,-0.22
2018-01-22T00:47:13.821Z,-0.23
2018-01-22T00:48:13.812Z,-0.18
2018-01-22T00:49:13.811Z,-0.13
2018-01-22T00:50:13.797Z,-0.15
2018-01-22T00:51:13.787Z,-0.16
2018-01-22T00:52:13.781Z,-0.13
2018-01-22T00:53:13.771Z,-0.09
2018-01-22T00:54:13.763Z,-0.11
2018-01-22T00:55:13.754Z,-0.18
2018-01-22T00:56:13.746Z,-0.12
2018-01-22T00:57:13.738Z,-0.06
2018-01-22T00:58:13.730Z,-0.16
2018-01-22T00:59:13.730Z,-0.11
2018-01-22T01:00:13.713Z,-0.11
2018-01-22T01:01:13.706Z,-0.19
2018-01-22T01:02:13.699Z,-0.24
2018-01-22T01:03:13.689Z,-0.19
2018-01-22T01:04:13.679Z,-0.19
2018-01-22T01:05:13.672Z,-0.06
2018-01-22T01:06:13.665Z,-0.06
2018-01-22T01:07:13.653Z,-0.01
2018-01-22T01:08:13.647Z,-0.01
2018-01-22T01:09:13.640Z,0.05
2018-01-22T01:10:13.633Z,0.05
2018-01-22T01:11:13.626Z,0.13
2018-01-22T01:12:13.633Z,0.06
2018-01-22T01:13:13.606Z,0.10
2018-01-22T01:14:13.598Z,0.12
2018-01-22T01:15:13.590Z,0.05
2018-01-22T01:16:13.582Z,0.00
2018-01-22T01:17:13.574Z,0.02
2018-01-22T01:18:13.567Z,0.03
2018-01-22T01:19:13.566Z,0.00
2018-01-22T01:20:13.549Z,0.00
2018-01-22T01:21:13.541Z,0.03
2018-01-22T01:22:13.533Z,0.05
2018-01-22T01:23:13.524Z,0.06
2018-01-22T01:24:13.516Z,0.09
2018-01-22T01:25:13.508Z,0.10
2018-01-22T01:26:13.502Z,0.07
2018-01-22T01:27:13.492Z,0.20
2018-01-22T01:28:13.506Z,0.21
2018-01-22T01:29:13.474Z,0.12
2018-01-22T01:30:13.468Z,0.12
2018-01-22T01:31:13.459Z,0.20
2018-01-22T01:32:13.451Z,0.20
2018-01-22T01:33:13.443Z,0.24
2018-01-22T01:34:13.438Z,0.24
2018-01-22T01:35:13.426Z,0.25
2018-01-22T01:36:13.417Z,0.16
2018-01-22T01:37:13.413Z,0.18
2018-01-22T01:38:13.405Z,0.23
2018-01-22T01:39:13.395Z,0.16
2018-01-22T01:40:13.385Z,0.25
2018-01-22T01:41:13.378Z,0.18
2018-01-22T01:42:13.373Z,0.24
2018-01-22T01:43:13.365Z,0.23
2018-01-22T01:44:13.353Z,0.21
2018-01-22T01:45:13.345Z,0.21
2018-01-22T01:46:13.339Z,0.18
2018-01-22T01:47:13.330Z,0.27
2018-01-22T01:48:13.323Z,0.24
2018-01-22T01:49:13.312Z,0.25
2018-01-22T01:50:13.309Z,0.23
2018-01-22T01:51:13.297Z,0.23
2018-01-22T01:52:13.287Z,0.21
2018-01-22T01:53:13.281Z,0.24
2018-01-22T01:54:13.280Z,0.27
2018-01-22T01:55:13.264Z,0.28
2018-01-22T01:56:13.252Z,0.27
2018-01-22T01:57:13.250Z,0.21
2018-01-22T01:58:13.240Z,0.20
2018-01-22T01:59:13.235Z,0.15
2018-01-22T02:00:13.223Z,0.21
2018-01-22T02:01:13.216Z,0.23
2018-01-22T02:02:13.208Z,0.20
2018-01-22T02:03:13.200Z,0.27
2018-01-22T02:04:13.191Z,0.28
2018-01-22T02:05:13.183Z,0.21
2018-01-22T02:06:13.177Z,0.31
2018-01-22T02:07:13.176Z,0.24
2018-01-22T02:08:13.167Z,0.16
2018-01-22T02:09:13.150Z,0.30
2018-01-22T02:10:13.142Z,0.21
2018-01-22T02:11:13.136Z,0.20
2018-01-22T02:12:13.131Z,0.34
2018-01-22T02:13:13.123Z,0.27
2018-01-22T02:14:13.112Z,0.24
2018-01-22T02:15:13.102Z,0.27
2018-01-22T02:16:13.093Z,0.33
2018-01-22T02:17:13.089Z,0.36
2018-01-22T02:18:13.078Z,0.30
2018-01-22T02:19:13.073Z,0.38
2018-01-22T02:20:13.063Z,0.34
2018-01-22T02:21:13.058Z,0.38
2018-01-22T02:22:13.048Z,0.28
2018-01-22T02:23:13.040Z,0.28
2018-01-22T02:24:13.037Z,0.30
2018-01-22T02:25:13.023Z,0.31
2018-01-22T02:26:13.014Z,0.36
2018-01-22T02:27:13.018Z,0.41
2018-01-22T02:28:12.998Z,0.25
2018-01-22T02:29:12.991Z,0.30
2018-01-22T02:30:12.983Z,0.25
2018-01-22T02:31:12.987Z,0.31
2018-01-22T02:32:12.967Z,0.24
2018-01-22T02:33:12.960Z,0.27
2018-01-22T02:34:12.952Z,0.28
2018-01-22T02:35:12.942Z,0.41
2018-01-22T02:36:12.935Z,0.31
2018-01-22T02:37:12.926Z,0.31
2018-01-22T02:38:12.916Z,0.31
2018-01-22T02:39:12.910Z,0.38
2018-01-22T02:40:12.903Z,0.30
2018-01-22T02:41:12.900Z,0.25
2018-01-22T02:42:12.884Z,0.39
2018-01-22T02:43:12.877Z,0.24
2018-01-22T02:44:12.868Z,0.21
2018-01-22T02:45:12.859Z,0.18
2018-01-22T02:46:12.852Z,0.33
2018-01-22T02:47:12.845Z,0.27
2018-01-22T02:48:12.837Z,0.31
2018-01-22T02:49:12.829Z,0.34
2018-01-22T02:50:12.823Z,0.25
2018-01-22T02:51:12.812Z,0.25
2018-01-22T02:52:12.814Z,0.27
2018-01-22T02:53:12.794Z,0.34
2018-01-22T02:54:12.787Z,0.39
2018-01-22T02:55:12.780Z,0.30
2018-01-22T02:56:12.771Z,0.31
2018-01-22T02:57:12.765Z,0.38
2018-01-22T02:58:12.756Z,0.24
2018-01-22T02:59:12.765Z,0.34
2018-01-22T03:00:12.738Z,0.31
2018-01-22T03:01:12.731Z,0.41
2018-01-22T03:02:12.723Z,0.41
2018-01-22T03:03:12.715Z,0.34
2018-01-22T03:04:12.706Z,0.34
2018-01-22T03:05:12.703Z,0.39
2018-01-22T03:06:12.692Z,0.36
2018-01-22T03:07:12.684Z,0.30
2018-01-22T03:08:12.675Z,0.25
2018-01-22T03:09:12.671Z,0.31
2018-01-22T03:10:12.658Z,0.28
2018-01-22T03:11:12.650Z,0.24
2018-01-22T03:12:12.642Z,0.25
2018-01-22T03:13:12.637Z,0.31
2018-01-22T03:14:12.625Z,0.31
2018-01-22T03:15:12.618Z,0.31
2018-01-22T03:16:12.610Z,0.31
2018-01-22T03:17:12.600Z,0.34
2018-01-22T03:18:12.602Z,0.38
2018-01-22T03:19:12.586Z,0.34
2018-01-22T03:20:12.575Z,0.36
2018-01-22T03:21:12.569Z,0.36
2018-01-22T03:22:12.561Z,0.30
2018-01-22T03:23:12.554Z,0.31
2018-01-22T03:24:12.542Z,0.36
2018-01-22T03:25:12.536Z,0.36
2018-01-22T03:26:12.526Z,0.38
2018-01-22T03:27:12.533Z,0.28
2018-01-22T03:28:12.513Z,0.28
2018-01-22T03:29:12.504Z,0.27
2018-01-22T03:30:12.495Z,0.33
2018-01-22T03:31:12.489Z,0.36
2018-01-22T03:32:12.479Z,0.25
2018-01-22T03:33:12.471Z,0.24
2018-01-22T03:34:12.523Z,0.23
2018-01-22T03:35:12.457Z,0.27
2018-01-22T03:36:12.447Z,0.34
2018-01-22T03:37:12.440Z,0.30
2018-01-22T03:38:12.431Z,0.23
2018-01-22T03:39:12.422Z,0.24
2018-01-22T03:40:12.423Z,0.27
2018-01-22T03:41:12.405Z,0.23
2018-01-22T03:42:12.397Z,0.25
2018-01-22T03:43:12.391Z,0.23
2018-01-22T03:44:12.382Z,0.21
2018-01-22T03:45:12.373Z,0.27
2018-01-22T03:46:12.375Z,0.25
2018-01-22T03:47:12.356Z,0.31
2018-01-22T03:48:12.351Z,0.23
2018-01-22T03:49:12.342Z,0.25
2018-01-22T03:50:12.334Z,0.27
2018-01-22T03:51:12.323Z,0.25
2018-01-22T03:52:12.313Z,0.20
2018-01-22T03:53:12.304Z,0.15
2018-01-22T03:54:12.298Z,0.13
2018-01-22T03:55:12.289Z,0.23
2018-01-22T03:56:12.290Z,0.18
2018-01-22T03:57:12.274Z,0.33
2018-01-22T03:58:12.266Z,0.27
2018-01-22T03:59:12.256Z,0.23
2018-01-22T04:00:12.246Z,0.23
2018-01-22T04:01:12.240Z,0.16
2018-01-22T04:02:12.230Z,0.25
2018-01-22T04:03:12.221Z,0.21
2018-01-22T04:04:12.214Z,0.23
2018-01-22T04:05:12.207Z,0.25
2018-01-22T04:06:12.198Z,0.24
2018-01-22T04:07:12.204Z,0.23
2018-01-22T04:08:12.182Z,0.18
2018-01-22T04:09:12.172Z,0.21
2018-01-22T04:10:12.183Z,0.15
2018-01-22T04:11:12.160Z,0.23
2018-01-22T04:12:12.160Z,0.21
2018-01-22T04:13:12.139Z,0.12
2018-01-22T04:14:12.129Z,0.18
2018-01-22T04:15:12.123Z,0.10
2018-01-22T04:16:12.111Z,0.20
2018-01-22T04:17:12.104Z,0.13
2018-01-22T04:18:12.094Z,0.23
2018-01-22T04:19:12.089Z,0.09
2018-01-22T04:20:12.077Z,0.12
2018-01-22T04:21:12.070Z,0.12
2018-01-22T04:22:12.075Z,0.16
2018-01-22T04:23:12.053Z,0.12
2018-01-22T04:24:12.043Z,0.18
2018-01-22T04:25:12.037Z,0.15
2018-01-22T04:26:12.033Z,0.09
2018-01-22T04:27:12.021Z,0.15
2018-01-22T04:28:12.010Z,0.20
2018-01-22T04:29:12.003Z,0.20
2018-01-22T04:30:11.992Z,0.09
2018-01-22T04:31:11.986Z,0.09
2018-01-22T04:32:11.977Z,0.12
2018-01-22T04:33:11.969Z,0.10
2018-01-22T04:34:11.959Z,0.05
2018-01-22T04:35:11.952Z,0.05
2018-01-22T04:36:11.942Z,0.10
2018-01-22T04:37:11.931Z,0.12
2018-01-22T04:38:11.924Z,0.07
2018-01-22T04:39:11.918Z,0.06
2018-01-22T04:40:11.907Z,0.09
2018-01-22T04:41:11.899Z,0.07
2018-01-22T04:42:11.893Z,0.12
2018-01-22T04:43:11.903Z,0.13
2018-01-22T04:44:11.874Z,0.05
2018-01-22T04:45:11.866Z,0.15
2018-01-22T04:46:11.858Z,0.09
2018-01-22T04:47:11.849Z,0.13
2018-01-22T04:48:11.840Z,0.12
2018-01-22T04:49:11.831Z,0.13
2018-01-22T04:50:11.824Z,0.13
2018-01-22T04:51:11.815Z,0.09
2018-01-22T04:52:11.807Z,0.16
2018-01-22T04:53:11.797Z,0.09
2018-01-22T04:54:11.788Z,0.13
2018-01-22T04:55:11.780Z,0.15
2018-01-22T04:56:11.771Z,0.12
2018-01-22T04:57:11.764Z,0.06
2018-01-22T04:58:11.754Z,0.10
2018-01-22T04:59:11.747Z,0.18
2018-01-22T05:00:11.739Z,0.12
2018-01-22T05:01:11.728Z,0.24
2018-01-22T05:02:11.721Z,0.09
2018-01-22T05:03:11.726Z,0.21
2018-01-22T05:04:11.702Z,0.09
2018-01-22T05:05:11.706Z,0.10
2018-01-22T05:06:11.687Z,0.09
2018-01-22T05:07:11.679Z,0.15
2018-01-22T05:08:11.668Z,0.07
2018-01-22T05:09:11.660Z,0.12
2018-01-22T05:10:11.650Z,0.03
2018-01-22T05:11:11.647Z,0.09
2018-01-22T05:12:11.635Z,0.06
2018-01-22T05:13:11.626Z,0.05
2018-01-22T05:14:11.618Z,0.05
2018-01-22T05:15:11.613Z,0.03
2018-01-22T05:16:11.601Z,0.07
2018-01-22T05:17:11.593Z,0.02
2018-01-22T05:18:11.585Z,0.05
2018-01-22T05:19:11.578Z,0.06
2018-01-22T05:20:11.568Z,0.05
2018-01-22T05:21:11.557Z,0.00
2018-01-22T05:22:11.562Z,0.05
2018-01-22T05:23:11.541Z,0.03
2018-01-22T05:24:11.532Z,0.00
2018-01-22T05:25:11.527Z,0.00
2018-01-22T05:26:11.516Z,0.02
2018-01-22T05:27:11.508Z,0.03
2018-01-22T05:28:11.499Z,0.03
2018-01-22T05:29:11.491Z,0.00
2018-01-22T05:30:11.482Z,0.06
2018-01-22T05:31:11.474Z,0.02
2018-01-22T05:32:11.462Z,0.07
2018-01-22T05:33:11.459Z,0.00
2018-01-22T05:34:11.449Z,0.03
2018-01-22T05:35:11.439Z,-0.01
2018-01-22T05:36:11.433Z,-0.04
2018-01-22T05:37:11.425Z,-0.05
2018-01-22T05:38:11.412Z,-0.04
2018-01-22T05:39:11.416Z,-0.08
2018-01-22T05:40:11.397Z,-0.04
2018-01-22T05:41:11.387Z,-0.04
2018-01-22T05:42:11.379Z,-0.01
2018-01-22T05:43:11.372Z,-0.04
2018-01-22T05:44:11.360Z,-0.01
2018-01-22T05:45:11.350Z,0.00
2018-01-22T05:46:11.345Z,0.00
2018-01-22T05:47:11.335Z,0.00
2018-01-22T05:48:11.327Z,0.02
2018-01-22T05:49:11.323Z,-0.01
2018-01-22T05:50:11.312Z,0.00
2018-01-22T05:51:11.302Z,-0.04
2018-01-22T05:52:11.292Z,0.00
2018-01-22T05:53:11.284Z,-0.04
2018-01-22T05:54:11.274Z,0.02
2018-01-22T05:55:11.267Z,0.05
2018-01-22T05:56:11.256Z,0.06
2018-01-22T05:57:11.249Z,0.00
2018-01-22T05:58:11.241Z,0.00
2018-01-22T05:59:11.236Z,-0.04
2018-01-22T06:00:11.224Z,0.06
2018-01-22T06:01:11.217Z,0.02
2018-01-22T06:02:11.211Z,0.05
2018-01-22T06:03:11.199Z,0.02
2018-01-22T06:04:11.186Z,0.00
2018-01-22T06:05:11.183Z,-0.01
2018-01-22T06:06:11.172Z,0.05
2018-01-22T06:07:11.170Z,0.07
2018-01-22T06:08:11.158Z,0.06
2018-01-22T06:09:11.147Z,0.02
2018-01-22T06:10:11.138Z,-0.01
2018-01-22T06:11:11.130Z,0.07
2018-01-22T06:12:11.124Z,0.00
2018-01-22T06:13:11.113Z,-0.01
2018-01-22T06:14:11.105Z,0.02
2018-01-22T06:15:11.098Z,0.06
2018-01-22T06:16:11.086Z,0.07
2018-01-22T06:17:11.078Z,0.06
2018-01-22T06:18:11.075Z,0.06
2018-01-22T06:19:11.061Z,0.06
2018-01-22T06:20:11.052Z,0.00
2018-01-22T06:21:11.044Z,0.09
2018-01-22T06:22:11.035Z,0.02
2018-01-22T06:23:11.030Z,0.07
2018-01-22T06:24:11.016Z,0.06
2018-01-22T06:25:11.010Z,0.09
2018-01-22T06:26:11.003Z,0.03
2018-01-22T06:27:10.993Z,0.00
2018-01-22T06:28:10.985Z,0.06
2018-01-22T06:29:10.976Z,0.05
2018-01-22T06:30:10.967Z,0.05
2018-01-22T06:31:10.960Z,-0.01
2018-01-22T06:32:10.953Z,0.02
2018-01-22T06:33:10.941Z,0.02
2018-01-22T06:34:10.948Z,0.05
2018-01-22T06:35:10.925Z,0.05
2018-01-22T06:36:10.916Z,0.05
2018-01-22T06:37:10.950Z,0.03
2018-01-22T06:38:10.899Z,0.06
2018-01-22T06:39:10.889Z,0.07
2018-01-22T06:40:10.883Z,0.06
2018-01-22T06:41:10.874Z,0.03
2018-01-22T06:42:10.866Z,0.02
2018-01-22T06:43:10.855Z,0.06
2018-01-22T06:44:10.852Z,-0.01
2018-01-22T06:45:10.844Z,0.06
2018-01-22T06:46:10.831Z,0.06
2018-01-22T06:47:10.822Z,0.00
2018-01-22T06:48:10.814Z,0.00
2018-01-22T06:49:10.818Z,0.02
2018-01-22T06:50:10.795Z,-0.12
2018-01-22T06:51:10.789Z,-0.05
2018-01-22T06:52:10.778Z,-0.04
2018-01-22T06:53:10.770Z,-0.09
2018-01-22T06:54:10.766Z,-0.06
2018-01-22T06:55:10.754Z,-0.01
2018-01-22T06:56:10.744Z,0.00
2018-01-22T06:57:10.739Z,0.03
2018-01-22T06:58:10.727Z,0.06
2018-01-22T06:59:10.718Z,0.07
2018-01-22T07:00:10.720Z,-0.01
2018-01-22T07:01:10.730Z,0.10
2018-01-22T07:02:10.693Z,-0.01
2018-01-22T07:03:10.686Z,0.07
2018-01-22T07:04:10.677Z,0.03
2018-01-22T07:05:10.668Z,0.05
2018-01-22T07:06:10.659Z,0.05
2018-01-22T07:07:10.654Z,0.03
2018-01-22T07:08:10.644Z,-0.01
2018-01-22T07:09:10.633Z,0.06
2018-01-22T07:10:10.625Z,-0.04
2018-01-22T07:11:10.616Z,-0.01
2018-01-22T07:12:10.604Z,-0.01
2018-01-22T07:13:10.599Z,0.03
2018-01-22T07:14:10.591Z,0.05
2018-01-22T07:15:10.584Z,-0.01
2018-01-22T07:16:10.571Z,0.09
2018-01-22T07:17:10.565Z,0.07
2018-01-22T07:18:10.557Z,0.00
2018-01-22T07:19:10.548Z,0.05
2018-01-22T07:20:10.537Z,0.06
2018-01-22T07:21:10.566Z,0.03
2018-01-22T07:22:10.522Z,0.12
2018-01-22T07:23:10.514Z,0.06
2018-01-22T07:24:10.509Z,0.05
2018-01-22T07:25:10.505Z,0.03
2018-01-22T07:26:10.488Z,0.09
2018-01-22T07:27:10.482Z,0.03
2018-01-22T07:28:10.471Z,0.07
2018-01-22T07:29:10.467Z,0.05
2018-01-22T07:30:10.455Z,0.02
2018-01-22T07:31:10.456Z,-0.05
2018-01-22T07:32:10.438Z,0.07
2018-01-22T07:33:10.431Z,0.00
2018-01-22T07:34:10.424Z,0.05
2018-01-22T07:35:10.416Z,0.05
2018-01-22T07:36:10.409Z,0.12
2018-01-22T07:37:10.404Z,0.06
2018-01-22T07:38:10.390Z,0.00
2018-01-22T07:39:10.381Z,0.03
2018-01-22T07:40:10.372Z,0.13
2018-01-22T07:41:10.364Z,0.18
2018-01-22T07:42:10.357Z,0.16
2018-01-22T07:43:10.345Z,0.09
2018-01-22T07:44:10.339Z,0.20
2018-01-22T07:45:10.331Z,0.06
2018-01-22T07:46:10.322Z,0.09
2018-01-22T07:47:10.313Z,0.05
2018-01-22T07:48:10.306Z,0.13
2018-01-22T07:49:10.295Z,0.13
2018-01-22T07:50:10.289Z,0.16
2018-01-22T07:51:10.279Z,0.20
2018-01-22T07:52:10.271Z,0.09
2018-01-22T07:53:10.263Z,0.18
2018-01-22T07:54:10.256Z,0.20
2018-01-22T07:55:10.247Z,0.16
2018-01-22T07:56:10.237Z,0.16
2018-01-22T07:57:10.226Z,0.18
2018-01-22T07:58:10.222Z,0.09
2018-01-22T07:59:10.213Z,0.23
2018-01-22T08:00:10.205Z,0.12
2018-01-22T08:01:10.198Z,0.12
2018-01-22T08:02:10.189Z,0.09
2018-01-22T08:03:10.180Z,0.07
2018-01-22T08:04:10.171Z,0.18
2018-01-22T08:05:10.163Z,0.16
2018-01-22T08:06:10.157Z,0.16
2018-01-22T08:07:10.148Z,0.07
2018-01-22T08:08:10.141Z,0.07
2018-01-22T08:09:10.130Z,0.07
2018-01-22T08:10:10.123Z,0.16
2018-01-22T08:11:10.115Z,0.15
2018-01-22T08:12:10.108Z,0.18
2018-01-22T08:13:10.099Z,0.06
2018-01-22T08:14:10.092Z,0.06
2018-01-22T08:15:10.086Z,0.12
2018-01-22T08:16:10.074Z,0.00
2018-01-22T08:17:10.065Z,0.09
2018-01-22T08:18:10.058Z,-0.01
2018-01-22T08:19:10.051Z,0.07
2018-01-22T08:20:10.047Z,0.09
2018-01-22T08:21:10.034Z,0.05
2018-01-22T08:22:10.024Z,0.03
2018-01-22T08:23:10.015Z,0.05
2018-01-22T08:24:10.007Z,0.16
2018-01-22T08:25:09.999Z,0.09
2018-01-22T08:26:09.990Z,0.20
2018-01-22T08:27:09.984Z,0.20
2018-01-22T08:28:09.975Z,0.20
2018-01-22T08:29:09.968Z,0.21
2018-01-22T08:30:09.959Z,0.21
2018-01-22T08:31:09.951Z,0.20
2018-01-22T08:32:09.941Z,0.20
2018-01-22T08:33:09.933Z,0.18
2018-01-22T08:34:09.927Z,0.25
2018-01-22T08:35:09.917Z,0.21
2018-01-22T08:36:09.908Z,0.23
2018-01-22T08:37:09.922Z,0.24
2018-01-22T08:38:09.892Z,0.18
2018-01-22T08:39:09.883Z,0.23
2018-01-22T08:40:09.878Z,0.23
2018-01-22T08:41:09.874Z,0.23
2018-01-22T08:42:09.857Z,0.20
2018-01-22T08:43:09.851Z,0.21
2018-01-22T08:44:09.840Z,0.23
2018-01-22T08:45:09.829Z,0.20
2018-01-22T08:46:09.826Z,0.23
2018-01-22T08:47:09.827Z,0.28
2018-01-22T08:48:18.509Z,0.27
2018-01-22T08:50:04.498Z,0.38
2018-01-22T08:51:04.347Z,0.28
2018-01-22T08:52:58.798Z,0.36
2018-01-22T08:53:58.751Z,0.46
2018-01-22T08:55:53.051Z,0.45
2018-01-22T08:56:53.072Z,0.58
2018-01-22T08:58:47.425Z,0.68
2018-01-22T08:59:47.729Z,0.90
2018-01-22T09:01:41.767Z,1.36
2018-01-22T09:02:42.229Z,1.76
2018-01-22T09:04:36.265Z,2.02
2018-01-22T09:05:36.386Z,2.59
2018-01-22T09:07:30.562Z,2.61
2018-01-22T09:08:30.432Z,2.08
2018-01-22T09:09:30.614Z,1.69
2018-01-22T09:10:30.451Z,1.37
2018-01-22T09:11:30.411Z,1.18
2018-01-22T09:12:30.381Z,1.07
2018-01-22T09:13:30.381Z,1.19
2018-01-22T09:14:30.368Z,1.39
2018-01-22T09:15:30.363Z,1.29
2018-01-22T09:16:30.356Z,1.25
2018-01-22T09:17:30.404Z,1.19
2018-01-22T09:18:30.340Z,1.08
2018-01-22T09:19:30.336Z,1.08
2018-01-22T09:20:30.336Z,1.16
2018-01-22T09:21:30.322Z,1.19
2018-01-22T09:22:30.317Z,1.07
2018-01-22T09:23:30.311Z,1.01
2018-01-22T09:24:30.306Z,1.18
2018-01-22T09:25:30.315Z,1.07
2018-01-22T09:26:30.292Z,1.16
2018-01-22T09:27:30.282Z,1.14
2018-01-22T09:28:30.276Z,1.14
2018-01-22T09:29:30.276Z,1.21
2018-01-22T09:30:30.265Z,1.16
2018-01-22T09:31:30.254Z,1.21
2018-01-22T09:32:30.248Z,1.26
2018-01-22T09:33:30.249Z,1.36
2018-01-22T09:34:30.235Z,1.19
2018-01-22T09:35:30.227Z,1.08
2018-01-22T09:36:30.225Z,1.18
2018-01-22T09:37:30.215Z,1.14
2018-01-22T09:38:30.206Z,1.04
2018-01-22T09:39:30.196Z,1.12
2018-01-22T09:40:30.192Z,1.12
2018-01-22T09:41:30.187Z,1.14
2018-01-22T09:42:30.176Z,1.18
2018-01-22T09:43:30.172Z,1.14
2018-01-22T09:44:30.166Z,1.04
2018-01-22T09:45:30.160Z,1.01
2018-01-22T09:46:30.151Z,0.96
2018-01-22T09:47:30.148Z,0.96
2018-01-22T09:48:30.139Z,0.89
2018-01-22T09:49:30.131Z,0.96
2018-01-22T09:50:30.125Z,0.90
2018-01-22T09:51:30.118Z,0.98
2018-01-22T09:52:30.115Z,0.94
2018-01-22T09:53:30.102Z,0.98
2018-01-22T09:54:30.095Z,0.97
2018-01-22T09:55:30.091Z,1.01
2018-01-22T09:56:30.081Z,0.97
2018-01-22T09:57:30.080Z,1.01
2018-01-22T09:58:30.065Z,1.00
2018-01-22T09:59:30.061Z,0.90
2018-01-22T10:00:30.051Z,0.96
2018-01-22T10:01:30.042Z,0.88
2018-01-22T10:02:30.036Z,0.94
2018-01-22T10:03:30.034Z,0.92
2018-01-22T10:04:30.036Z,0.94
2018-01-22T10:05:30.022Z,0.94
2018-01-22T10:06:30.008Z,0.97
2018-01-22T10:07:30.019Z,1.00
2018-01-22T10:08:29.998Z,1.15
2018-01-22T10:09:29.992Z,1.12
2018-01-22T10:10:29.980Z,1.15
2018-01-22T10:11:29.972Z,1.26
2018-01-22T10:12:29.967Z,1.18
2018-01-22T10:13:29.957Z,1.37
2018-01-22T10:14:29.952Z,1.42
2018-01-22T10:15:29.951Z,1.47
2018-01-22T10:16:29.937Z,1.60
2018-01-22T10:17:29.934Z,1.64
2018-01-22T10:18:29.926Z,1.68
2018-01-22T10:19:29.916Z,1.79
2018-01-22T10:20:29.913Z,1.89
2018-01-22T10:21:29.907Z,1.97
2018-01-22T10:22:29.898Z,1.90
2018-01-22T10:23:29.890Z,1.91
2018-01-22T10:24:29.887Z,2.01
2018-01-22T10:25:29.878Z,2.04
2018-01-22T10:26:29.869Z,2.09
2018-01-22T10:27:29.865Z,2.04
2018-01-22T10:28:29.861Z,2.09
2018-01-22T10:29:29.873Z,2.66
2018-01-22T10:30:29.848Z,2.94
2018-01-22T10:31:29.846Z,3.21
2018-01-22T10:32:29.839Z,3.33
2018-01-22T10:33:29.833Z,3.54
2018-01-22T10:34:29.837Z,3.30
2018-01-22T10:35:29.824Z,3.33
2018-01-22T10:36:29.825Z,3.43
2018-01-22T10:37:29.824Z,3.18
2018-01-22T10:38:29.828Z,2.94
2018-01-22T10:39:29.820Z,2.67
2018-01-22T10:40:29.819Z,2.26
2018-01-22T10:41:29.825Z,2.04
2018-01-22T10:42:29.841Z,2.08
2018-01-22T10:43:29.823Z,2.01
2018-01-22T10:44:29.814Z,1.87
2018-01-22T10:45:29.810Z,2.02
2018-01-22T10:46:29.805Z,2.04
2018-01-22T10:47:29.802Z,2.02
2018-01-22T10:48:29.800Z,2.13
2018-01-22T10:49:29.801Z,2.22
2018-01-22T10:50:29.793Z,2.17
2018-01-22T10:51:29.789Z,2.33
2018-01-22T10:52:29.785Z,2.27
2018-01-22T10:53:29.779Z,2.16
2018-01-22T10:54:29.837Z,2.20
2018-01-22T10:55:29.771Z,2.22
2018-01-22T10:56:29.767Z,2.19
2018-01-22T10:57:29.764Z,2.10
2018-01-22T10:58:29.757Z,2.04
2018-01-22T10:59:29.753Z,2.12
2018-01-22T11:00:29.747Z,2.19
2018-01-22T11:01:29.744Z,2.26
2018-01-22T11:02:29.759Z,2.33
2018-01-22T11:03:29.732Z,2.40
2018-01-22T11:04:29.730Z,2.49
2018-01-22T11:05:29.730Z,2.56
2018-01-22T11:06:29.718Z,2.49
2018-01-22T11:07:29.713Z,2.48
2018-01-22T11:08:29.713Z,2.52
2018-01-22T11:09:29.705Z,2.84
2018-01-22T11:10:29.698Z,3.07
2018-01-22T11:11:29.697Z,3.07
2018-01-22T11:12:29.686Z,3.34
2018-01-22T11:13:29.684Z,3.47
2018-01-22T11:14:29.677Z,3.54
2018-01-22T11:15:29.675Z,3.72
2018-01-22T11:16:29.672Z,3.83
2018-01-22T11:17:29.665Z,3.72
2018-01-22T11:18:29.667Z,3.75
2018-01-22T11:19:29.654Z,3.76
2018-01-22T11:20:29.651Z,3.71
2018-01-22T11:21:29.649Z,3.54
2018-01-22T11:22:29.640Z,3.53
2018-01-22T11:23:29.636Z,3.43
2018-01-22T11:24:29.634Z,3.20
2018-01-22T11:25:29.629Z,3.16
2018-01-22T11:26:29.623Z,3.20
2018-01-22T11:27:29.618Z,3.09
2018-01-22T11:28:29.618Z,3.07
2018-01-22T11:29:29.613Z,3.05
2018-01-22T11:30:29.605Z,3.03
2018-01-22T11:31:29.599Z,3.05
2018-01-22T11:32:29.597Z,3.05
2018-01-22T11:33:29.592Z,3.06
2018-01-22T11:34:29.587Z,3.05
2018-01-22T11:35:29.583Z,2.95
2018-01-22T11:36:29.578Z,3.03
2018-01-22T11:37:29.573Z,2.76
2018-01-22T11:38:29.571Z,2.89
2018-01-22T11:39:29.563Z,2.81
2018-01-22T11:40:29.559Z,2.91
2018-01-22T11:41:29.555Z,2.84
2018-01-22T11:42:29.552Z,2.84
2018-01-22T11:43:29.549Z,2.77
2018-01-22T11:44:29.538Z,2.73
2018-01-22T11:45:29.536Z,2.77
2018-01-22T11:46:29.537Z,2.88
2018-01-22T11:47:29.524Z,2.87
2018-01-22T11:48:29.521Z,2.91
2018-01-22T11:49:29.516Z,2.89
2018-01-22T11:50:29.513Z,3.00
2018-01-22T11:51:29.505Z,2.91
2018-01-22T11:52:29.512Z,2.89
2018-01-22T11:53:29.497Z,2.85
2018-01-22T11:54:29.494Z,2.91
2018-01-22T11:55:29.487Z,2.85
2018-01-22T11:56:29.481Z,2.92
2018-01-22T11:57:29.477Z,3.00
2018-01-22T11:58:29.470Z,3.06
2018-01-22T11:59:29.464Z,3.09
2018-01-22T12:00:29.460Z,2.94
2018-01-22T12:01:29.455Z,2.97
2018-01-22T12:02:29.449Z,2.98
2018-01-22T12:03:29.444Z,2.87
2018-01-22T12:04:29.440Z,2.87
2018-01-22T12:05:29.436Z,2.81
2018-01-22T12:06:29.429Z,2.73
2018-01-22T12:07:29.422Z,2.70
2018-01-22T12:08:29.421Z,2.71
2018-01-22T12:09:29.415Z,2.70
2018-01-22T12:10:29.409Z,2.70
2018-01-22T12:11:29.454Z,2.70
2018-01-22T12:12:29.395Z,2.67
2018-01-22T12:13:29.391Z,2.73
2018-01-22T12:14:29.387Z,2.74
2018-01-22T12:15:29.383Z,2.67
2018-01-22T12:16:29.375Z,2.85
2018-01-22T12:17:29.370Z,2.82
2018-01-22T12:18:29.364Z,2.81
2018-01-22T12:19:29.360Z,2.85
2018-01-22T12:20:29.357Z,2.73
2018-01-22T12:21:29.351Z,2.71
2018-01-22T12:22:29.345Z,2.79
2018-01-22T12:23:29.337Z,2.85
2018-01-22T12:24:29.334Z,2.77
2018-01-22T12:25:29.327Z,2.87
2018-01-22T12:26:29.323Z,2.82
2018-01-22T12:27:29.316Z,2.84
2018-01-22T12:28:29.309Z,2.87
2018-01-22T12:29:29.306Z,2.76
2018-01-22T12:30:29.301Z,2.63
2018-01-22T12:31:29.295Z,2.70
2018-01-22T12:32:29.288Z,2.71
2018-01-22T12:33:29.284Z,2.71
2018-01-22T12:34:29.277Z,2.61
2018-01-22T12:35:29.275Z,2.61
2018-01-22T12:36:29.264Z,2.61
2018-01-22T12:37:29.260Z,2.52
2018-01-22T12:38:29.255Z,2.53
2018-01-22T12:39:29.250Z,2.53
2018-01-22T12:40:29.244Z,2.56
2018-01-22T12:41:29.239Z,2.45
2018-01-22T12:42:29.231Z,2.53
2018-01-22T12:43:29.227Z,2.51
2018-01-22T12:44:29.280Z,2.48
2018-01-22T12:45:29.216Z,2.55
2018-01-22T12:46:29.210Z,2.41
2018-01-22T12:47:29.205Z,2.44
2018-01-22T12:48:29.200Z,2.45
2018-01-22T12:49:29.194Z,2.46
2018-01-22T12:50:29.188Z,2.44
2018-01-22T12:51:29.180Z,2.44
2018-01-22T12:52:29.177Z,2.46
2018-01-22T12:53:29.188Z,2.38
2018-01-22T12:54:29.163Z,2.44
2018-01-22T12:55:29.162Z,2.40
2018-01-22T12:56:29.152Z,2.46
2018-01-22T12:57:29.146Z,2.55
2018-01-22T12:58:29.143Z,2.48
2018-01-22T12:59:29.134Z,2.46
2018-01-22T13:00:29.131Z,2.51
2018-01-22T13:01:29.122Z,2.53
2018-01-22T13:02:29.122Z,2.52
2018-01-22T13:03:29.112Z,2.51
2018-01-22T13:04:29.108Z,2.51
2018-01-22T13:05:29.097Z,2.49
2018-01-22T13:06:29.092Z,2.51
2018-01-22T13:07:29.089Z,2.53
2018-01-22T13:08:29.082Z,2.53
2018-01-22T13:09:29.101Z,2.48
2018-01-22T13:10:29.070Z,2.49
2018-01-22T13:11:29.063Z,2.49
2018-01-22T13:12:29.056Z,2.53
2018-01-22T13:13:29.051Z,2.51
2018-01-22T13:14:29.048Z,2.51
2018-01-22T13:15:29.133Z,2.53
2018-01-22T13:16:29.033Z,2.53
2018-01-22T13:17:29.027Z,2.51
2018-01-22T13:18:29.019Z,2.46
2018-01-22T13:19:29.015Z,2.52
2018-01-22T13:20:29.008Z,2.53
2018-01-22T13:21:29.009Z,2.49